sensor_id;sensor_type;location;lat;lon;timestamp;temperature;humidity
58469;DHT22;44257;44.804;10.220;2023-07-22T00:01:01;22.00;99.90
58469;DHT22;44257;44.804;10.220;2023-07-22T00:03:27;22.00;99.90
58469;DHT22;44257;44.804;10.220;2023-07-22T00:06:08;22.00;99.90
58469;DHT22;44257;44.804;10.220;2023-07-22T00:08:34;22.00;99.90
58469;DHT22;44257;44.804;10.220;2023-07-22T00:11:01;21.80;99.90
58469;DHT22;44257;44.804;10.220;2023-07-22T00:13:27;21.70;99.90
58469;DHT22;44257;44.804;10.220;2023-07-22T00:15:54;21.50;99.90
58469;DHT22;44257;44.804;10.220;2023-07-22T00:18:20;21.50;99.90
58469;DHT22;44257;44.804;10.220;2023-07-22T00:20:46;21.40;99.90
58469;DHT22;44257;44.804;10.220;2023-07-22T00:23:12;21.30;99.90
58469;DHT22;44257;44.804;10.220;2023-07-22T00:25:38;21.30;99.90
58469;DHT22;44257;44.804;10.220;2023-07-22T00:28:04;21.30;99.90
58469;DHT22;44257;44.804;10.220;2023-07-22T00:30:30;21.40;99.90
58469;DHT22;44257;44.804;10.220;2023-07-22T00:32:56;21.40;99.90
58469;DHT22;44257;44.804;10.220;2023-07-22T00:35:22;21.50;99.90
58469;DHT22;44257;44.804;10.220;2023-07-22T00:37:48;21.50;99.90
58469;DHT22;44257;44.804;10.220;2023-07-22T00:40:14;21.50;99.90
58469;DHT22;44257;44.804;10.220;2023-07-22T00:42:40;21.50;99.90
58469;DHT22;44257;44.804;10.220;2023-07-22T00:45:06;21.40;99.90
58469;DHT22;44257;44.804;10.220;2023-07-22T00:47:34;21.30;99.90
58469;DHT22;44257;44.804;10.220;2023-07-22T00:50:02;21.30;99.90
58469;DHT22;44257;44.804;10.220;2023-07-22T00:52:29;21.20;99.90
58469;DHT22;44257;44.804;10.220;2023-07-22T00:54:55;21.20;99.90
58469;DHT22;44257;44.804;10.220;2023-07-22T00:57:22;21.10;99.90
58469;DHT22;44257;44.804;10.220;2023-07-22T00:59:49;21.10;99.90
58469;DHT22;44257;44.804;10.220;2023-07-22T01:02:14;21.10;99.90
58469;DHT22;44257;44.804;10.220;2023-07-22T01:04:40;21.10;99.90
58469;DHT22;44257;44.804;10.220;2023-07-22T01:07:07;21.10;99.90
58469;DHT22;44257;44.804;10.220;2023-07-22T01:09:37;21.00;99.90
58469;DHT22;44257;44.804;10.220;2023-07-22T01:12:04;21.10;99.90
58469;DHT22;44257;44.804;10.220;2023-07-22T01:14:40;21.10;99.90
58469;DHT22;44257;44.804;10.220;2023-07-22T01:17:08;21.10;99.90
58469;DHT22;44257;44.804;10.220;2023-07-22T01:19:34;21.10;99.90
58469;DHT22;44257;44.804;10.220;2023-07-22T01:22:05;21.00;99.90
58469;DHT22;44257;44.804;10.220;2023-07-22T01:24:34;21.00;99.90
58469;DHT22;44257;44.804;10.220;2023-07-22T01:27:00;21.00;99.90
58469;DHT22;44257;44.804;10.220;2023-07-22T01:29:26;21.00;99.90
58469;DHT22;44257;44.804;10.220;2023-07-22T01:31:54;21.00;99.90
58469;DHT22;44257;44.804;10.220;2023-07-22T01:34:21;21.00;99.90
58469;DHT22;44257;44.804;10.220;2023-07-22T01:36:48;21.00;99.90
58469;DHT22;44257;44.804;10.220;2023-07-22T01:39:14;21.00;99.90
58469;DHT22;44257;44.804;10.220;2023-07-22T01:41:41;21.00;99.90
58469;DHT22;44257;44.804;10.220;2023-07-22T01:44:07;20.90;99.90
58469;DHT22;44257;44.804;10.220;2023-07-22T01:46:33;20.90;99.90
58469;DHT22;44257;44.804;10.220;2023-07-22T01:49:01;20.80;99.90
58469;DHT22;44257;44.804;10.220;2023-07-22T01:51:27;20.80;99.90
58469;DHT22;44257;44.804;10.220;2023-07-22T01:53:53;20.70;99.90
58469;DHT22;44257;44.804;10.220;2023-07-22T01:56:22;20.60;99.90
58469;DHT22;44257;44.804;10.220;2023-07-22T01:58:48;20.60;99.90
58469;DHT22;44257;44.804;10.220;2023-07-22T02:01:14;20.60;99.90
58469;DHT22;44257;44.804;10.220;2023-07-22T02:03:42;20.60;99.90
58469;DHT22;44257;44.804;10.220;2023-07-22T02:06:08;20.60;99.90
58469;DHT22;44257;44.804;10.220;2023-07-22T02:08:35;20.60;99.90
58469;DHT22;44257;44.804;10.220;2023-07-22T02:11:05;20.60;99.90
58469;DHT22;44257;44.804;10.220;2023-07-22T02:13:32;20.60;99.90
58469;DHT22;44257;44.804;10.220;2023-07-22T02:16:00;20.60;99.90
58469;DHT22;44257;44.804;10.220;2023-07-22T02:18:26;20.60;99.90
58469;DHT22;44257;44.804;10.220;2023-07-22T02:20:56;20.70;99.90
58469;DHT22;44257;44.804;10.220;2023-07-22T02:23:23;20.70;99.90
58469;DHT22;44257;44.804;10.220;2023-07-22T02:25:53;20.60;99.90
58469;DHT22;44257;44.804;10.220;2023-07-22T02:28:19;20.60;99.90
58469;DHT22;44257;44.804;10.220;2023-07-22T02:30:53;20.60;99.90
58469;DHT22;44257;44.804;10.220;2023-07-22T02:33:20;20.70;99.90
58469;DHT22;44257;44.804;10.220;2023-07-22T02:35:48;20.70;99.90
58469;DHT22;44257;44.804;10.220;2023-07-22T02:38:14;20.60;99.90
58469;DHT22;44257;44.804;10.220;2023-07-22T02:40:40;20.50;99.90
58469;DHT22;44257;44.804;10.220;2023-07-22T02:43:06;20.50;99.90
58469;DHT22;44257;44.804;10.220;2023-07-22T02:45:36;20.40;99.90
58469;DHT22;44257;44.804;10.220;2023-07-22T02:48:02;20.50;99.90
58469;DHT22;44257;44.804;10.220;2023-07-22T02:50:29;20.50;99.90
58469;DHT22;44257;44.804;10.220;2023-07-22T02:52:55;20.40;99.90
58469;DHT22;44257;44.804;10.220;2023-07-22T02:55:22;20.40;99.90
58469;DHT22;44257;44.804;10.220;2023-07-22T02:57:49;20.40;99.90
58469;DHT22;44257;44.804;10.220;2023-07-22T03:00:17;20.30;99.90
58469;DHT22;44257;44.804;10.220;2023-07-22T03:02:53;20.30;99.90
58469;DHT22;44257;44.804;10.220;2023-07-22T03:05:21;20.30;99.90
58469;DHT22;44257;44.804;10.220;2023-07-22T03:07:47;20.20;99.90
58469;DHT22;44257;44.804;10.220;2023-07-22T03:10:13;20.30;99.90
58469;DHT22;44257;44.804;10.220;2023-07-22T03:12:39;20.30;99.90
58469;DHT22;44257;44.804;10.220;2023-07-22T03:15:05;20.30;99.90
58469;DHT22;44257;44.804;10.220;2023-07-22T03:17:38;20.30;99.90
58469;DHT22;44257;44.804;10.220;2023-07-22T03:20:04;20.40;99.90
58469;DHT22;44257;44.804;10.220;2023-07-22T03:22:51;20.30;99.90
58469;DHT22;44257;44.804;10.220;2023-07-22T03:25:17;20.30;99.90
58469;DHT22;44257;44.804;10.220;2023-07-22T03:27:44;20.40;99.90
58469;DHT22;44257;44.804;10.220;2023-07-22T03:30:13;20.30;99.90
58469;DHT22;44257;44.804;10.220;2023-07-22T03:32:47;20.30;99.90
58469;DHT22;44257;44.804;10.220;2023-07-22T03:35:13;20.30;99.90
58469;DHT22;44257;44.804;10.220;2023-07-22T03:37:40;20.30;99.90
58469;DHT22;44257;44.804;10.220;2023-07-22T03:40:07;20.20;99.90
58469;DHT22;44257;44.804;10.220;2023-07-22T03:42:47;20.30;99.90
58469;DHT22;44257;44.804;10.220;2023-07-22T03:45:13;20.20;99.90
58469;DHT22;44257;44.804;10.220;2023-07-22T03:47:39;20.20;99.90
58469;DHT22;44257;44.804;10.220;2023-07-22T03:50:06;20.20;99.90
58469;DHT22;44257;44.804;10.220;2023-07-22T03:52:33;20.20;99.90
58469;DHT22;44257;44.804;10.220;2023-07-22T03:54:58;20.20;99.90
58469;DHT22;44257;44.804;10.220;2023-07-22T03:57:28;20.20;99.90
58469;DHT22;44257;44.804;10.220;2023-07-22T03:59:55;20.20;99.90
58469;DHT22;44257;44.804;10.220;2023-07-22T04:02:21;20.20;99.90
58469;DHT22;44257;44.804;10.220;2023-07-22T04:04:47;20.30;99.90
58469;DHT22;44257;44.804;10.220;2023-07-22T04:07:13;20.30;99.90
58469;DHT22;44257;44.804;10.220;2023-07-22T04:09:39;20.30;99.90
58469;DHT22;44257;44.804;10.220;2023-07-22T04:12:06;20.30;99.90
58469;DHT22;44257;44.804;10.220;2023-07-22T04:14:33;20.40;99.90
58469;DHT22;44257;44.804;10.220;2023-07-22T04:16:58;20.40;99.90
58469;DHT22;44257;44.804;10.220;2023-07-22T04:19:24;20.50;99.90
58469;DHT22;44257;44.804;10.220;2023-07-22T04:21:52;20.60;99.90
58469;DHT22;44257;44.804;10.220;2023-07-22T04:24:18;20.70;99.90
58469;DHT22;44257;44.804;10.220;2023-07-22T04:26:44;20.80;99.90
58469;DHT22;44257;44.804;10.220;2023-07-22T04:29:10;20.90;99.90
58469;DHT22;44257;44.804;10.220;2023-07-22T04:31:38;21.10;99.90
58469;DHT22;44257;44.804;10.220;2023-07-22T04:34:04;21.20;99.90
58469;DHT22;44257;44.804;10.220;2023-07-22T04:36:31;21.30;99.90
58469;DHT22;44257;44.804;10.220;2023-07-22T04:38:57;21.30;99.90
58469;DHT22;44257;44.804;10.220;2023-07-22T04:41:23;21.40;99.90
58469;DHT22;44257;44.804;10.220;2023-07-22T04:43:50;21.40;99.90
58469;DHT22;44257;44.804;10.220;2023-07-22T04:46:17;21.50;99.90
58469;DHT22;44257;44.804;10.220;2023-07-22T04:48:43;21.60;99.90
58469;DHT22;44257;44.804;10.220;2023-07-22T04:51:09;21.70;99.90
58469;DHT22;44257;44.804;10.220;2023-07-22T04:53:35;21.80;99.90
58469;DHT22;44257;44.804;10.220;2023-07-22T04:56:01;21.90;99.90
58469;DHT22;44257;44.804;10.220;2023-07-22T04:58:28;21.90;99.90
58469;DHT22;44257;44.804;10.220;2023-07-22T05:00:54;22.00;99.90
58469;DHT22;44257;44.804;10.220;2023-07-22T05:03:20;22.10;99.90
58469;DHT22;44257;44.804;10.220;2023-07-22T05:05:45;22.20;99.90
58469;DHT22;44257;44.804;10.220;2023-07-22T05:08:12;22.30;99.90
58469;DHT22;44257;44.804;10.220;2023-07-22T05:10:38;22.40;99.90
58469;DHT22;44257;44.804;10.220;2023-07-22T05:13:04;22.50;99.90
58469;DHT22;44257;44.804;10.220;2023-07-22T05:15:30;22.70;99.90
58469;DHT22;44257;44.804;10.220;2023-07-22T05:17:56;22.90;99.90
58469;DHT22;44257;44.804;10.220;2023-07-22T05:20:22;23.20;99.90
58469;DHT22;44257;44.804;10.220;2023-07-22T05:22:48;23.50;99.90
58469;DHT22;44257;44.804;10.220;2023-07-22T05:25:15;23.80;99.90
58469;DHT22;44257;44.804;10.220;2023-07-22T05:27:41;24.10;99.90
58469;DHT22;44257;44.804;10.220;2023-07-22T05:30:07;24.40;99.90
58469;DHT22;44257;44.804;10.220;2023-07-22T05:32:34;24.80;99.90
58469;DHT22;44257;44.804;10.220;2023-07-22T05:35:00;25.10;99.90
58469;DHT22;44257;44.804;10.220;2023-07-22T05:37:27;25.40;99.90
58469;DHT22;44257;44.804;10.220;2023-07-22T05:39:53;25.70;99.90
58469;DHT22;44257;44.804;10.220;2023-07-22T05:42:19;26.00;99.90
58469;DHT22;44257;44.804;10.220;2023-07-22T05:44:45;26.40;99.90
58469;DHT22;44257;44.804;10.220;2023-07-22T05:47:11;26.60;99.90
58469;DHT22;44257;44.804;10.220;2023-07-22T05:49:37;27.00;99.90
58469;DHT22;44257;44.804;10.220;2023-07-22T05:52:03;27.20;99.90
58469;DHT22;44257;44.804;10.220;2023-07-22T05:54:29;27.30;99.90
58469;DHT22;44257;44.804;10.220;2023-07-22T05:56:55;27.40;99.90
58469;DHT22;44257;44.804;10.220;2023-07-22T05:59:21;27.50;99.90
58469;DHT22;44257;44.804;10.220;2023-07-22T06:01:47;27.80;99.90
58469;DHT22;44257;44.804;10.220;2023-07-22T06:04:13;27.90;99.90
58469;DHT22;44257;44.804;10.220;2023-07-22T06:06:39;28.00;99.90
58469;DHT22;44257;44.804;10.220;2023-07-22T06:09:04;28.20;99.90
58469;DHT22;44257;44.804;10.220;2023-07-22T06:11:30;28.40;99.90
58469;DHT22;44257;44.804;10.220;2023-07-22T06:13:56;28.40;99.90
58469;DHT22;44257;44.804;10.220;2023-07-22T06:16:22;28.40;99.90
58469;DHT22;44257;44.804;10.220;2023-07-22T06:18:48;28.50;99.90
58469;DHT22;44257;44.804;10.220;2023-07-22T06:21:14;28.90;99.90
58469;DHT22;44257;44.804;10.220;2023-07-22T06:23:41;29.20;99.90
58469;DHT22;44257;44.804;10.220;2023-07-22T06:26:07;29.50;99.90
58469;DHT22;44257;44.804;10.220;2023-07-22T06:28:33;29.80;99.90
58469;DHT22;44257;44.804;10.220;2023-07-22T06:30:59;30.00;99.90
58469;DHT22;44257;44.804;10.220;2023-07-22T06:33:24;30.00;99.90
58469;DHT22;44257;44.804;10.220;2023-07-22T06:35:50;30.10;99.90
58469;DHT22;44257;44.804;10.220;2023-07-22T06:38:16;30.10;99.90
58469;DHT22;44257;44.804;10.220;2023-07-22T06:40:42;30.30;99.90
58469;DHT22;44257;44.804;10.220;2023-07-22T06:43:08;30.30;99.90
58469;DHT22;44257;44.804;10.220;2023-07-22T06:45:33;30.50;99.90
58469;DHT22;44257;44.804;10.220;2023-07-22T06:47:59;30.40;99.90
58469;DHT22;44257;44.804;10.220;2023-07-22T06:50:25;30.30;99.90
58469;DHT22;44257;44.804;10.220;2023-07-22T06:52:51;30.20;99.90
58469;DHT22;44257;44.804;10.220;2023-07-22T06:55:17;30.10;99.90
58469;DHT22;44257;44.804;10.220;2023-07-22T06:57:43;30.00;99.90
58469;DHT22;44257;44.804;10.220;2023-07-22T07:00:09;30.00;99.90
58469;DHT22;44257;44.804;10.220;2023-07-22T07:02:36;29.90;99.90
58469;DHT22;44257;44.804;10.220;2023-07-22T07:05:02;29.80;99.90
58469;DHT22;44257;44.804;10.220;2023-07-22T07:07:28;29.70;99.90
58469;DHT22;44257;44.804;10.220;2023-07-22T07:09:54;29.60;99.90
58469;DHT22;44257;44.804;10.220;2023-07-22T07:12:20;29.30;99.90
58469;DHT22;44257;44.804;10.220;2023-07-22T07:14:46;29.20;99.90
58469;DHT22;44257;44.804;10.220;2023-07-22T07:17:11;29.30;99.90
58469;DHT22;44257;44.804;10.220;2023-07-22T07:19:37;29.30;99.90
58469;DHT22;44257;44.804;10.220;2023-07-22T07:22:03;29.40;99.90
58469;DHT22;44257;44.804;10.220;2023-07-22T07:24:29;29.30;99.90
58469;DHT22;44257;44.804;10.220;2023-07-22T07:26:55;29.30;99.90
58469;DHT22;44257;44.804;10.220;2023-07-22T07:29:21;29.30;99.90
58469;DHT22;44257;44.804;10.220;2023-07-22T07:31:47;29.40;99.90
58469;DHT22;44257;44.804;10.220;2023-07-22T07:34:13;29.60;99.90
58469;DHT22;44257;44.804;10.220;2023-07-22T07:36:39;29.70;99.90
58469;DHT22;44257;44.804;10.220;2023-07-22T07:39:05;29.80;99.90
58469;DHT22;44257;44.804;10.220;2023-07-22T07:41:31;29.70;99.90
58469;DHT22;44257;44.804;10.220;2023-07-22T07:43:57;29.50;99.90
58469;DHT22;44257;44.804;10.220;2023-07-22T07:46:26;29.30;99.90
58469;DHT22;44257;44.804;10.220;2023-07-22T07:48:57;29.30;99.90
58469;DHT22;44257;44.804;10.220;2023-07-22T07:51:25;29.30;99.90
58469;DHT22;44257;44.804;10.220;2023-07-22T07:53:53;29.30;99.90
58469;DHT22;44257;44.804;10.220;2023-07-22T07:56:20;29.30;99.90
58469;DHT22;44257;44.804;10.220;2023-07-22T07:58:47;29.30;99.90
58469;DHT22;44257;44.804;10.220;2023-07-22T08:01:14;29.30;99.90
58469;DHT22;44257;44.804;10.220;2023-07-22T08:03:41;29.40;99.90
58469;DHT22;44257;44.804;10.220;2023-07-22T08:06:08;29.60;99.90
58469;DHT22;44257;44.804;10.220;2023-07-22T08:08:35;29.60;99.90
58469;DHT22;44257;44.804;10.220;2023-07-22T08:11:12;29.50;99.90
58469;DHT22;44257;44.804;10.220;2023-07-22T08:13:43;29.40;99.90
58469;DHT22;44257;44.804;10.220;2023-07-22T08:16:11;29.30;99.90
58469;DHT22;44257;44.804;10.220;2023-07-22T08:18:37;28.90;99.90
58469;DHT22;44257;44.804;10.220;2023-07-22T08:21:04;28.60;99.90
58469;DHT22;44257;44.804;10.220;2023-07-22T08:23:33;28.50;99.90
58469;DHT22;44257;44.804;10.220;2023-07-22T08:25:59;28.70;99.90
58469;DHT22;44257;44.804;10.220;2023-07-22T08:28:25;29.10;99.90
58469;DHT22;44257;44.804;10.220;2023-07-22T08:30:54;29.40;99.90
58469;DHT22;44257;44.804;10.220;2023-07-22T08:33:22;29.40;99.90
58469;DHT22;44257;44.804;10.220;2023-07-22T08:35:48;29.20;99.90
58469;DHT22;44257;44.804;10.220;2023-07-22T08:38:14;29.20;99.90
58469;DHT22;44257;44.804;10.220;2023-07-22T08:40:40;29.40;99.90
58469;DHT22;44257;44.804;10.220;2023-07-22T08:43:08;29.50;99.90
58469;DHT22;44257;44.804;10.220;2023-07-22T08:45:36;29.60;99.90
58469;DHT22;44257;44.804;10.220;2023-07-22T08:48:04;29.80;99.90
58469;DHT22;44257;44.804;10.220;2023-07-22T08:53:12;30.30;99.90
58469;DHT22;44257;44.804;10.220;2023-07-22T08:55:38;30.30;99.90
58469;DHT22;44257;44.804;10.220;2023-07-22T08:58:11;30.40;99.90
58469;DHT22;44257;44.804;10.220;2023-07-22T09:00:38;30.40;99.90
58469;DHT22;44257;44.804;10.220;2023-07-22T09:03:05;30.20;99.90
58469;DHT22;44257;44.804;10.220;2023-07-22T09:05:34;30.30;99.90
58469;DHT22;44257;44.804;10.220;2023-07-22T09:08:02;30.50;99.90
58469;DHT22;44257;44.804;10.220;2023-07-22T09:10:29;30.60;99.50
58469;DHT22;44257;44.804;10.220;2023-07-22T09:12:56;30.60;99.70
58469;DHT22;44257;44.804;10.220;2023-07-22T09:15:22;30.80;99.90
58469;DHT22;44257;44.804;10.220;2023-07-22T09:17:49;30.90;99.90
58469;DHT22;44257;44.804;10.220;2023-07-22T09:20:15;31.00;98.40
58469;DHT22;44257;44.804;10.220;2023-07-22T09:22:45;31.00;98.90
58469;DHT22;44257;44.804;10.220;2023-07-22T09:27:49;31.30;99.00
58469;DHT22;44257;44.804;10.220;2023-07-22T09:32:47;31.70;97.80
58469;DHT22;44257;44.804;10.220;2023-07-22T09:35:13;31.70;98.30
58469;DHT22;44257;44.804;10.220;2023-07-22T09:37:39;31.80;97.90
58469;DHT22;44257;44.804;10.220;2023-07-22T09:40:15;31.90;97.00
58469;DHT22;44257;44.804;10.220;2023-07-22T09:42:47;32.00;97.10
58469;DHT22;44257;44.804;10.220;2023-07-22T09:45:13;32.10;96.20
58469;DHT22;44257;44.804;10.220;2023-07-22T09:47:43;31.90;96.00
58469;DHT22;44257;44.804;10.220;2023-07-22T09:50:17;31.80;96.50
58469;DHT22;44257;44.804;10.220;2023-07-22T09:52:53;31.80;95.90
58469;DHT22;44257;44.804;10.220;2023-07-22T09:55:24;31.80;96.90
58469;DHT22;44257;44.804;10.220;2023-07-22T09:57:58;32.00;96.10
58469;DHT22;44257;44.804;10.220;2023-07-22T10:00:31;31.90;96.80
58469;DHT22;44257;44.804;10.220;2023-07-22T10:02:59;32.00;97.30
58469;DHT22;44257;44.804;10.220;2023-07-22T10:05:26;32.20;96.90
58469;DHT22;44257;44.804;10.220;2023-07-22T10:07:54;32.60;96.10
58469;DHT22;44257;44.804;10.220;2023-07-22T10:10:40;32.90;94.80
58469;DHT22;44257;44.804;10.220;2023-07-22T10:13:09;33.20;94.80
58469;DHT22;44257;44.804;10.220;2023-07-22T10:15:36;33.40;94.00
58469;DHT22;44257;44.804;10.220;2023-07-22T10:18:03;33.60;93.80
58469;DHT22;44257;44.804;10.220;2023-07-22T10:20:31;33.60;93.90
58469;DHT22;44257;44.804;10.220;2023-07-22T10:23:00;33.40;93.20
58469;DHT22;44257;44.804;10.220;2023-07-22T10:25:26;33.00;93.50
58469;DHT22;44257;44.804;10.220;2023-07-22T10:27:53;32.80;93.90
58469;DHT22;44257;44.804;10.220;2023-07-22T10:30:19;32.60;94.20
58469;DHT22;44257;44.804;10.220;2023-07-22T10:37:55;31.80;94.20
58469;DHT22;44257;44.804;10.220;2023-07-22T10:43:06;31.00;95.50
58469;DHT22;44257;44.804;10.220;2023-07-22T10:45:33;30.70;96.00
58469;DHT22;44257;44.804;10.220;2023-07-22T10:48:12;30.80;97.30
58469;DHT22;44257;44.804;10.220;2023-07-22T10:50:52;31.10;97.60
58469;DHT22;44257;44.804;10.220;2023-07-22T10:58:32;32.30;94.20
58469;DHT22;44257;44.804;10.220;2023-07-22T11:04:27;32.80;93.80
58469;DHT22;44257;44.804;10.220;2023-07-22T11:07:03;32.90;93.50
58469;DHT22;44257;44.804;10.220;2023-07-22T11:12:00;33.10;92.80
58469;DHT22;44257;44.804;10.220;2023-07-22T11:14:27;32.90;92.70
58469;DHT22;44257;44.804;10.220;2023-07-22T11:16:57;32.80;93.50
58469;DHT22;44257;44.804;10.220;2023-07-22T11:19:23;32.90;93.50
58469;DHT22;44257;44.804;10.220;2023-07-22T11:21:51;33.10;93.20
58469;DHT22;44257;44.804;10.220;2023-07-22T11:24:18;33.30;92.40
58469;DHT22;44257;44.804;10.220;2023-07-22T11:26:45;33.40;92.60
58469;DHT22;44257;44.804;10.220;2023-07-22T11:29:12;33.40;92.50
58469;DHT22;44257;44.804;10.220;2023-07-22T11:31:39;33.30;92.60
58469;DHT22;44257;44.804;10.220;2023-07-22T11:34:09;33.20;92.60
58469;DHT22;44257;44.804;10.220;2023-07-22T11:36:35;32.70;92.60
58469;DHT22;44257;44.804;10.220;2023-07-22T11:39:06;32.10;93.80
58469;DHT22;44257;44.804;10.220;2023-07-22T11:41:33;31.40;94.00
58469;DHT22;44257;44.804;10.220;2023-07-22T11:44:00;31.00;95.20
58469;DHT22;44257;44.804;10.220;2023-07-22T11:46:27;30.60;96.80
58469;DHT22;44257;44.804;10.220;2023-07-22T11:48:54;30.30;99.20
58469;DHT22;44257;44.804;10.220;2023-07-22T11:51:22;29.50;99.50
58469;DHT22;44257;44.804;10.220;2023-07-22T11:53:49;28.50;99.90
58469;DHT22;44257;44.804;10.220;2023-07-22T11:56:24;27.60;99.90
58469;DHT22;44257;44.804;10.220;2023-07-22T11:58:56;26.90;99.90
58469;DHT22;44257;44.804;10.220;2023-07-22T12:01:23;26.30;99.90
58469;DHT22;44257;44.804;10.220;2023-07-22T12:03:54;25.90;99.90
58469;DHT22;44257;44.804;10.220;2023-07-22T12:06:24;25.40;99.90
58469;DHT22;44257;44.804;10.220;2023-07-22T12:08:52;25.10;99.90
58469;DHT22;44257;44.804;10.220;2023-07-22T12:11:20;24.90;99.90
58469;DHT22;44257;44.804;10.220;2023-07-22T12:13:46;25.10;99.90
58469;DHT22;44257;44.804;10.220;2023-07-22T12:16:22;25.40;99.90
58469;DHT22;44257;44.804;10.220;2023-07-22T12:18:49;25.70;99.90
58469;DHT22;44257;44.804;10.220;2023-07-22T12:21:15;26.00;99.90
58469;DHT22;44257;44.804;10.220;2023-07-22T12:23:42;26.10;99.90
58469;DHT22;44257;44.804;10.220;2023-07-22T12:26:08;26.20;99.90
58469;DHT22;44257;44.804;10.220;2023-07-22T12:28:34;26.60;99.90
58469;DHT22;44257;44.804;10.220;2023-07-22T12:31:00;27.10;99.90
58469;DHT22;44257;44.804;10.220;2023-07-22T12:33:26;27.70;99.90
58469;DHT22;44257;44.804;10.220;2023-07-22T12:35:54;28.20;99.90
58469;DHT22;44257;44.804;10.220;2023-07-22T12:38:20;28.50;99.90
58469;DHT22;44257;44.804;10.220;2023-07-22T12:40:46;28.70;99.90
58469;DHT22;44257;44.804;10.220;2023-07-22T12:43:12;28.90;99.90
58469;DHT22;44257;44.804;10.220;2023-07-22T12:45:37;29.00;99.90
58469;DHT22;44257;44.804;10.220;2023-07-22T12:48:03;29.10;99.90
58469;DHT22;44257;44.804;10.220;2023-07-22T12:50:31;29.20;99.90
58469;DHT22;44257;44.804;10.220;2023-07-22T12:52:58;29.30;99.90
58469;DHT22;44257;44.804;10.220;2023-07-22T12:55:24;29.30;99.90
58469;DHT22;44257;44.804;10.220;2023-07-22T12:57:50;29.20;99.90
58469;DHT22;44257;44.804;10.220;2023-07-22T13:00:16;29.20;99.90
58469;DHT22;44257;44.804;10.220;2023-07-22T13:02:42;29.20;99.90
58469;DHT22;44257;44.804;10.220;2023-07-22T13:05:09;29.40;99.90
58469;DHT22;44257;44.804;10.220;2023-07-22T13:07:35;29.80;99.90
58469;DHT22;44257;44.804;10.220;2023-07-22T13:10:01;30.20;99.90
58469;DHT22;44257;44.804;10.220;2023-07-22T13:12:29;30.60;99.90
58469;DHT22;44257;44.804;10.220;2023-07-22T13:14:55;30.80;99.90
58469;DHT22;44257;44.804;10.220;2023-07-22T13:17:21;30.80;99.90
58469;DHT22;44257;44.804;10.220;2023-07-22T13:19:47;30.80;99.90
58469;DHT22;44257;44.804;10.220;2023-07-22T13:22:12;30.70;99.90
58469;DHT22;44257;44.804;10.220;2023-07-22T13:24:38;30.80;99.90
58469;DHT22;44257;44.804;10.220;2023-07-22T13:27:05;31.10;99.80
58469;DHT22;44257;44.804;10.220;2023-07-22T13:29:31;31.30;98.70
58469;DHT22;44257;44.804;10.220;2023-07-22T13:31:57;31.50;99.90
58469;DHT22;44257;44.804;10.220;2023-07-22T13:34:23;31.80;97.70
58469;DHT22;44257;44.804;10.220;2023-07-22T13:36:49;32.00;97.30
58469;DHT22;44257;44.804;10.220;2023-07-22T13:39:15;32.10;97.20
58469;DHT22;44257;44.804;10.220;2023-07-22T13:41:41;32.20;97.00
58469;DHT22;44257;44.804;10.220;2023-07-22T13:44:06;32.20;97.60
58469;DHT22;44257;44.804;10.220;2023-07-22T13:46:32;32.00;96.70
58469;DHT22;44257;44.804;10.220;2023-07-22T13:48:58;31.80;96.70
58469;DHT22;44257;44.804;10.220;2023-07-22T13:51:24;31.50;96.70
58469;DHT22;44257;44.804;10.220;2023-07-22T13:53:49;31.40;97.80
58469;DHT22;44257;44.804;10.220;2023-07-22T13:56:18;31.40;98.20
58469;DHT22;44257;44.804;10.220;2023-07-22T13:58:44;31.40;98.90
58469;DHT22;44257;44.804;10.220;2023-07-22T14:01:09;31.20;98.00
58469;DHT22;44257;44.804;10.220;2023-07-22T14:03:35;31.00;97.20
58469;DHT22;44257;44.804;10.220;2023-07-22T14:06:01;31.10;99.10
58469;DHT22;44257;44.804;10.220;2023-07-22T14:08:27;31.30;98.70
58469;DHT22;44257;44.804;10.220;2023-07-22T14:10:53;31.20;98.40
58469;DHT22;44257;44.804;10.220;2023-07-22T14:13:18;31.10;98.10
58469;DHT22;44257;44.804;10.220;2023-07-22T14:15:44;30.90;97.70
58469;DHT22;44257;44.804;10.220;2023-07-22T14:18:10;30.90;97.40
58469;DHT22;44257;44.804;10.220;2023-07-22T14:20:37;30.80;98.20
58469;DHT22;44257;44.804;10.220;2023-07-22T14:23:03;30.90;97.30
58469;DHT22;44257;44.804;10.220;2023-07-22T14:25:30;31.00;97.10
58469;DHT22;44257;44.804;10.220;2023-07-22T14:27:56;31.10;97.90
58469;DHT22;44257;44.804;10.220;2023-07-22T14:30:21;31.30;97.40
58469;DHT22;44257;44.804;10.220;2023-07-22T14:32:47;31.40;98.90
58469;DHT22;44257;44.804;10.220;2023-07-22T14:35:13;31.60;98.40
58469;DHT22;44257;44.804;10.220;2023-07-22T14:37:39;31.80;98.70
58469;DHT22;44257;44.804;10.220;2023-07-22T14:40:05;32.00;98.60
58469;DHT22;44257;44.804;10.220;2023-07-22T14:42:31;32.10;98.00
58469;DHT22;44257;44.804;10.220;2023-07-22T14:44:57;32.30;97.20
58469;DHT22;44257;44.804;10.220;2023-07-22T14:47:23;32.40;97.30
58469;DHT22;44257;44.804;10.220;2023-07-22T14:49:48;32.60;95.70
58469;DHT22;44257;44.804;10.220;2023-07-22T14:52:14;32.70;96.40
58469;DHT22;44257;44.804;10.220;2023-07-22T14:54:40;32.70;95.50
58469;DHT22;44257;44.804;10.220;2023-07-22T14:57:06;32.70;95.30
58469;DHT22;44257;44.804;10.220;2023-07-22T14:59:32;32.70;95.20
58469;DHT22;44257;44.804;10.220;2023-07-22T15:01:58;32.70;95.60
58469;DHT22;44257;44.804;10.220;2023-07-22T15:04:23;32.80;95.80
58469;DHT22;44257;44.804;10.220;2023-07-22T15:06:50;32.80;96.40
58469;DHT22;44257;44.804;10.220;2023-07-22T15:09:16;32.80;97.20
58469;DHT22;44257;44.804;10.220;2023-07-22T15:11:42;32.90;96.10
58469;DHT22;44257;44.804;10.220;2023-07-22T15:14:08;32.90;95.30
58469;DHT22;44257;44.804;10.220;2023-07-22T15:16:34;32.90;94.60
58469;DHT22;44257;44.804;10.220;2023-07-22T15:19:00;32.90;95.50
58469;DHT22;44257;44.804;10.220;2023-07-22T15:21:26;33.00;95.40
58469;DHT22;44257;44.804;10.220;2023-07-22T15:23:53;33.00;94.80
58469;DHT22;44257;44.804;10.220;2023-07-22T15:26:19;33.00;95.50
58469;DHT22;44257;44.804;10.220;2023-07-22T15:28:45;33.00;95.40
58469;DHT22;44257;44.804;10.220;2023-07-22T15:31:13;33.00;94.90
58469;DHT22;44257;44.804;10.220;2023-07-22T15:33:39;33.00;95.50
58469;DHT22;44257;44.804;10.220;2023-07-22T15:36:04;33.10;96.60
58469;DHT22;44257;44.804;10.220;2023-07-22T15:38:30;33.30;96.30
58469;DHT22;44257;44.804;10.220;2023-07-22T15:40:57;33.40;95.90